Inkom, Idaho
Current Conditions -  °F | °C
As of 10:53 PM on Thursday 27 Nov 2014 (Local Time) from KPIH Reporting Station
Clear Clear  
Wind Chill: 53°   Ceiling: Unl
Heat Index: 53°   Visibility: 10mi
Dew Point: 23°   Wind: 9mph
Humidity: 31%   Direction: 200°SSW
Pressure: 30.04"   Gusts: NA
Location:  42.8°N, 112.25°W
Report Text: KPIH 280553Z AUTO 20008KT 10SM CLR 12/M05 A3004 RMK AO2 SLP150 T01171050 10122 20078 58012
Loading
Personal Weather Stations






























Interactive Weather Map New forecast layout! Learn more

10-Day Weather Forecast

Advertisements
Track Severe Weather on mobile